createdAt,value
2024-01-20T00:01:05.772Z,91.90
2024-01-20T00:03:34.371Z,91.19
2024-01-20T00:06:03.072Z,91.90
2024-01-20T00:08:31.689Z,91.85
2024-01-20T00:11:00.240Z,92.41
2024-01-20T00:13:28.827Z,93.29
2024-01-20T00:15:58.769Z,93.09
2024-01-20T00:18:29.278Z,92.70
2024-01-20T00:20:58.078Z,92.08
2024-01-20T00:23:26.813Z,92.03
2024-01-20T00:25:55.876Z,92.33
2024-01-20T00:28:24.361Z,92.21
2024-01-20T00:30:52.811Z,91.84
2024-01-20T00:33:22.193Z,92.71
2024-01-20T00:35:52.179Z,92.11
2024-01-20T00:38:20.768Z,91.80
2024-01-20T00:40:49.522Z,91.97
2024-01-20T00:43:18.583Z,92.63
2024-01-20T00:45:50.632Z,92.36
2024-01-20T00:48:19.340Z,91.82
2024-01-20T00:50:48.092Z,92.48
2024-01-20T00:53:18.058Z,93.09
2024-01-20T00:55:47.176Z,93.03
2024-01-20T00:58:15.769Z,93.22
2024-01-20T01:00:44.209Z,92.81
2024-01-20T01:03:12.701Z,92.69
2024-01-20T01:05:41.276Z,92.89
2024-01-20T01:08:09.861Z,94.36
2024-01-20T01:10:39.863Z,93.78
2024-01-20T01:13:08.510Z,93.19
2024-01-20T01:15:37.171Z,94.27
2024-01-20T01:18:06.745Z,93.67
2024-01-20T01:20:35.304Z,93.08
2024-01-20T01:23:04.006Z,93.52
2024-01-20T01:25:32.513Z,94.12
2024-01-20T01:28:03.021Z,93.28
2024-01-20T01:30:31.564Z,93.98
2024-01-20T01:33:00.502Z,93.41
2024-01-20T01:35:29.203Z,93.45
2024-01-20T01:37:59.547Z,93.71
2024-01-20T01:40:28.330Z,93.88
2024-01-20T01:42:58.497Z,94.89
2024-01-20T01:45:28.706Z,94.15
2024-01-20T01:47:58.627Z,93.32
2024-01-20T01:50:28.571Z,92.61
2024-01-20T01:52:58.208Z,92.72
2024-01-20T01:55:28.395Z,94.11
2024-01-20T01:57:59.168Z,93.66
2024-01-20T02:00:31.927Z,93.28
2024-01-20T02:03:00.745Z,93.39
2024-01-20T02:05:29.636Z,92.84
2024-01-20T02:08:01.041Z,93.99
2024-01-20T02:10:30.963Z,93.56
2024-01-20T02:13:01.774Z,94.45
2024-01-20T02:15:32.065Z,94.04
2024-01-20T02:18:00.974Z,94.29
2024-01-20T02:20:29.827Z,94.10
2024-01-20T02:23:02.413Z,93.32
2024-01-20T02:25:31.103Z,93.05
2024-01-20T02:28:01.060Z,93.07
2024-01-20T02:30:29.720Z,93.59
2024-01-20T02:32:58.350Z,93.86
2024-01-20T02:35:26.882Z,92.79
2024-01-20T02:37:55.439Z,93.66
2024-01-20T02:40:25.577Z,93.64
2024-01-20T02:42:54.060Z,93.94
2024-01-20T02:45:22.605Z,93.40
2024-01-20T02:47:52.707Z,93.61
2024-01-20T02:50:21.280Z,93.95
2024-01-20T02:52:50.213Z,93.66
2024-01-20T02:55:19.037Z,93.86
2024-01-20T02:57:48.959Z,93.58
2024-01-20T03:00:17.723Z,93.26
2024-01-20T03:02:46.432Z,92.78
2024-01-20T03:05:15.178Z,93.33
2024-01-20T03:07:43.651Z,94.26
2024-01-20T03:10:12.838Z,93.70
2024-01-20T03:12:41.412Z,94.25
2024-01-20T03:15:12.069Z,94.90
2024-01-20T03:17:40.973Z,94.95
2024-01-20T03:20:11.221Z,94.55
2024-01-20T03:22:39.671Z,94.23
2024-01-20T03:25:09.834Z,94.11
2024-01-20T03:27:38.833Z,94.21
2024-01-20T03:30:10.937Z,93.71
2024-01-20T03:32:39.885Z,93.88
2024-01-20T03:35:09.419Z,93.32
2024-01-20T03:37:38.093Z,93.02
2024-01-20T03:40:08.164Z,92.36
2024-01-20T03:42:36.837Z,93.00
2024-01-20T03:45:06.489Z,94.18
2024-01-20T03:47:36.365Z,94.98
2024-01-20T03:50:06.689Z,93.98
2024-01-20T03:52:35.277Z,93.67
2024-01-20T03:55:03.780Z,94.78
2024-01-20T03:57:32.723Z,93.94
2024-01-20T04:00:01.269Z,95.01
2024-01-20T04:02:30.103Z,94.98
2024-01-20T04:05:00.115Z,95.13
2024-01-20T04:07:28.617Z,93.89
2024-01-20T04:09:57.355Z,93.58
2024-01-20T04:12:26.058Z,94.22
2024-01-20T04:14:56.842Z,93.71
2024-01-20T04:17:25.497Z,94.09
2024-01-20T04:19:54.370Z,93.46
2024-01-20T04:22:24.592Z,92.68
2024-01-20T04:24:53.026Z,93.15
2024-01-20T04:27:21.596Z,92.99
2024-01-20T04:29:50.071Z,94.21
2024-01-20T04:32:18.546Z,93.64
2024-01-20T04:34:48.572Z,95.15
2024-01-20T04:37:16.993Z,94.26
2024-01-20T04:39:46.944Z,94.29
2024-01-20T04:42:15.524Z,94.25
2024-01-20T04:44:44.111Z,93.90
2024-01-20T04:47:12.707Z,94.00
2024-01-20T04:49:41.315Z,93.57
2024-01-20T04:52:10.153Z,92.97
2024-01-20T04:54:38.748Z,94.54
2024-01-20T04:57:08.762Z,94.17
2024-01-20T04:59:37.192Z,94.03
2024-01-20T05:02:06.075Z,94.49
2024-01-20T05:04:34.678Z,93.57
2024-01-20T05:07:03.287Z,94.45
2024-01-20T05:09:31.811Z,93.91
2024-01-20T05:12:00.331Z,93.40
2024-01-20T05:14:30.607Z,93.98
2024-01-20T05:16:59.263Z,92.85
2024-01-20T05:19:27.933Z,93.88
2024-01-20T05:21:56.350Z,94.84
2024-01-20T05:24:24.800Z,94.83
2024-01-20T05:26:53.371Z,94.04
2024-01-20T05:29:21.872Z,93.73
2024-01-20T05:31:52.037Z,93.34
2024-01-20T05:34:20.572Z,93.79
2024-01-20T05:36:49.487Z,93.57
2024-01-20T05:39:18.046Z,92.57
2024-01-20T05:41:46.454Z,92.89
2024-01-20T05:44:16.510Z,93.28
2024-01-20T05:46:45.176Z,93.36
2024-01-20T05:49:15.338Z,93.29
2024-01-20T05:51:43.781Z,92.90
2024-01-20T05:54:12.548Z,93.03
2024-01-20T05:56:41.019Z,92.21
2024-01-20T05:59:09.574Z,92.23
2024-01-20T06:01:37.996Z,92.21
2024-01-20T06:04:06.551Z,92.37
2024-01-20T06:06:36.424Z,93.02
2024-01-20T06:09:05.221Z,93.29
2024-01-20T06:11:34.080Z,93.29
2024-01-20T06:14:02.704Z,93.36
2024-01-20T06:16:31.197Z,94.12
2024-01-20T06:18:59.700Z,94.07
2024-01-20T06:21:28.450Z,94.36
2024-01-20T06:23:58.309Z,94.38
2024-01-20T06:26:26.969Z,94.06
2024-01-20T06:28:55.469Z,94.59
2024-01-20T06:31:28.934Z,95.13
2024-01-20T06:33:57.774Z,95.13
2024-01-20T06:36:27.296Z,94.06
2024-01-20T06:38:57.373Z,93.14
2024-01-20T06:41:25.901Z,92.09
2024-01-20T06:43:54.303Z,93.59
2024-01-20T06:46:22.812Z,93.42
2024-01-20T06:48:51.653Z,93.61
2024-01-20T06:51:24.151Z,92.77
2024-01-20T06:53:58.195Z,92.89
2024-01-20T06:56:28.152Z,92.79
2024-01-20T06:58:58.044Z,93.68
2024-01-20T07:01:27.062Z,93.75
2024-01-20T07:03:55.723Z,92.50
2024-01-20T07:06:26.167Z,93.06
2024-01-20T07:08:56.201Z,93.00
2024-01-20T07:11:27.812Z,92.46
2024-01-20T07:13:56.259Z,93.40
2024-01-20T07:16:24.886Z,93.60
2024-01-20T07:18:55.770Z,92.67
2024-01-20T07:21:24.774Z,94.37
2024-01-20T07:23:54.592Z,94.17
2024-01-20T07:26:23.181Z,94.20
2024-01-20T07:28:53.091Z,93.42
2024-01-20T07:31:21.865Z,92.88
2024-01-20T07:33:50.544Z,93.16
2024-01-20T07:36:19.203Z,93.33
2024-01-20T07:38:48.638Z,94.05
2024-01-20T07:41:17.194Z,94.08
2024-01-20T07:43:45.602Z,94.22
2024-01-20T07:46:15.661Z,94.47
2024-01-20T07:48:44.828Z,95.53
2024-01-20T07:51:13.594Z,95.45
2024-01-20T07:53:42.029Z,95.35
2024-01-20T07:56:12.827Z,96.32
2024-01-20T07:58:41.222Z,95.94
2024-01-20T08:01:10.390Z,96.43
2024-01-20T08:03:40.757Z,95.80
2024-01-20T08:06:10.332Z,95.35
2024-01-20T08:08:38.872Z,96.23
2024-01-20T08:11:07.466Z,95.66
2024-01-20T08:13:35.923Z,95.33
2024-01-20T08:16:04.676Z,95.06
2024-01-20T08:18:33.130Z,95.61
2024-01-20T08:21:08.066Z,94.89
2024-01-20T08:23:36.729Z,94.94
2024-01-20T08:26:05.701Z,94.46
2024-01-20T08:28:34.314Z,94.58
2024-01-20T08:31:02.985Z,94.98
2024-01-20T08:33:31.719Z,94.70
2024-01-20T08:36:00.302Z,94.56
2024-01-20T08:38:30.199Z,93.82
2024-01-20T08:40:59.290Z,94.08
2024-01-20T08:43:29.358Z,94.34
2024-01-20T08:45:57.897Z,93.54
2024-01-20T08:48:26.844Z,93.13
2024-01-20T08:50:55.256Z,92.69
2024-01-20T08:53:23.779Z,92.38
2024-01-20T08:55:53.597Z,92.99
2024-01-20T08:58:22.189Z,93.13
2024-01-20T09:00:54.584Z,93.44
2024-01-20T09:03:23.250Z,93.30
2024-01-20T09:05:51.875Z,93.39
2024-01-20T09:08:20.402Z,92.84
2024-01-20T09:10:48.857Z,92.22
2024-01-20T09:13:19.267Z,92.93
2024-01-20T09:15:47.880Z,93.08
2024-01-20T09:18:17.480Z,93.13
2024-01-20T09:20:46.940Z,92.67
2024-01-20T09:23:15.587Z,92.48
2024-01-20T09:25:45.762Z,91.78
2024-01-20T09:28:15.641Z,91.31
2024-01-20T09:30:45.734Z,91.49
2024-01-20T09:33:15.449Z,91.29
2024-01-20T09:35:46.757Z,91.75
2024-01-20T09:38:15.423Z,90.58
2024-01-20T09:40:44.060Z,90.60
2024-01-20T09:43:13.402Z,90.13
2024-01-20T09:45:42.393Z,89.92
2024-01-20T09:48:12.556Z,89.43
2024-01-20T09:50:41.364Z,90.05
2024-01-20T09:53:16.916Z,90.09
2024-01-20T09:55:47.176Z,90.38
2024-01-20T09:58:18.767Z,90.66
2024-01-20T10:00:48.069Z,90.27
2024-01-20T10:03:21.712Z,89.70
2024-01-20T10:05:53.167Z,89.88
2024-01-20T10:08:21.568Z,89.65
2024-01-20T10:10:50.320Z,88.96
2024-01-20T10:13:20.865Z,88.53
2024-01-20T10:15:49.360Z,87.92
2024-01-20T10:18:19.460Z,88.57
2024-01-20T10:20:49.062Z,88.47
2024-01-20T10:23:19.699Z,88.21
2024-01-20T10:25:48.137Z,88.38
2024-01-20T10:28:16.543Z,88.15
2024-01-20T10:30:45.433Z,87.12
2024-01-20T10:33:15.534Z,86.44
2024-01-20T10:35:45.442Z,85.50
2024-01-20T10:38:16.249Z,86.08
2024-01-20T10:40:46.417Z,85.27
2024-01-20T10:43:17.511Z,82.92
2024-01-20T10:46:01.785Z,83.21
2024-01-20T10:48:35.084Z,82.79
2024-01-20T10:51:11.307Z,83.04
2024-01-20T10:53:41.030Z,82.45
2024-01-20T10:56:10.407Z,82.38
2024-01-20T10:58:48.946Z,81.97
2024-01-20T11:01:18.590Z,80.73
2024-01-20T11:03:47.348Z,81.54
2024-01-20T11:06:23.161Z,82.89
2024-01-20T11:08:52.581Z,82.17
2024-01-20T11:11:21.747Z,82.09
2024-01-20T11:13:50.723Z,81.91
2024-01-20T11:16:23.628Z,82.79
2024-01-20T11:18:52.344Z,83.24
2024-01-20T11:21:22.304Z,84.06
2024-01-20T11:24:00.539Z,82.72
2024-01-20T11:26:34.917Z,80.95
2024-01-20T11:29:05.738Z,80.98
2024-01-20T11:31:35.096Z,80.34
2024-01-20T11:34:07.175Z,79.34
2024-01-20T11:36:37.935Z,78.93
2024-01-20T11:39:07.434Z,78.08
2024-01-20T11:41:36.153Z,78.68
2024-01-20T11:44:04.726Z,76.93
2024-01-20T11:46:33.461Z,77.35
2024-01-20T11:49:02.029Z,75.61
2024-01-20T11:51:30.645Z,74.67
2024-01-20T11:54:00.718Z,75.54
2024-01-20T11:56:29.721Z,75.44
2024-01-20T11:58:58.303Z,76.77
2024-01-20T12:01:26.785Z,76.56
2024-01-20T12:03:56.130Z,76.79
2024-01-20T12:06:24.958Z,74.54
2024-01-20T12:08:53.649Z,74.99
2024-01-20T12:11:25.521Z,74.89
2024-01-20T12:13:54.308Z,74.55
2024-01-20T12:16:23.429Z,74.93
2024-01-20T12:18:52.031Z,75.46
2024-01-20T12:21:20.728Z,75.58
2024-01-20T12:23:49.606Z,73.60
2024-01-20T12:26:18.439Z,73.92
2024-01-20T12:28:51.617Z,73.65
2024-01-20T12:31:22.898Z,72.50
2024-01-20T12:33:52.448Z,73.29
2024-01-20T12:36:21.382Z,72.45
2024-01-20T12:38:50.595Z,73.06
2024-01-20T12:41:19.093Z,72.81
2024-01-20T12:43:50.366Z,72.82
2024-01-20T12:46:20.091Z,72.03
2024-01-20T12:48:48.654Z,71.97
2024-01-20T12:51:17.419Z,70.51
2024-01-20T12:53:46.084Z,70.68
2024-01-20T12:56:15.041Z,69.47
2024-01-20T12:58:43.565Z,71.63
2024-01-20T13:01:13.549Z,70.51
2024-01-20T13:03:42.068Z,69.50
2024-01-20T13:06:11.211Z,69.37
2024-01-20T13:08:39.710Z,69.84
2024-01-20T13:11:08.204Z,68.53
2024-01-20T13:13:36.784Z,69.88
2024-01-20T13:16:07.407Z,68.36
2024-01-20T13:18:37.651Z,67.51
2024-01-20T13:21:06.298Z,68.28
2024-01-20T13:23:34.979Z,68.32
2024-01-20T13:26:03.575Z,67.24
2024-01-20T13:28:34.254Z,67.19
2024-01-20T13:31:03.087Z,66.60
2024-01-20T13:33:32.400Z,64.72
2024-01-20T13:36:02.288Z,64.34
2024-01-20T13:38:31.083Z,63.08
2024-01-20T13:40:59.843Z,63.05
2024-01-20T13:43:28.314Z,64.69
2024-01-20T13:45:57.172Z,63.51
2024-01-20T13:48:25.964Z,65.17
2024-01-20T13:50:54.735Z,65.08
2024-01-20T13:53:25.481Z,64.29
2024-01-20T13:55:54.051Z,64.30
2024-01-20T13:58:22.472Z,63.92
2024-01-20T14:00:51.276Z,64.11
2024-01-20T14:03:19.901Z,63.42
2024-01-20T14:05:50.436Z,64.58
2024-01-20T14:08:19.896Z,63.30
2024-01-20T14:10:49.848Z,63.87
2024-01-20T14:13:18.465Z,63.40
2024-01-20T14:15:47.066Z,63.29
2024-01-20T14:18:15.785Z,63.65
2024-01-20T14:20:44.406Z,63.43
2024-01-20T14:23:12.827Z,61.90
2024-01-20T14:25:41.289Z,61.69
2024-01-20T14:28:11.179Z,61.35
2024-01-20T14:30:41.144Z,61.84
2024-01-20T14:33:10.689Z,61.79
2024-01-20T14:35:39.276Z,60.84
2024-01-20T14:38:07.795Z,60.97
2024-01-20T14:40:36.524Z,60.86
2024-01-20T14:43:06.715Z,60.69
2024-01-20T14:45:37.401Z,60.78
2024-01-20T14:48:08.352Z,59.95
2024-01-20T14:50:37.183Z,60.53
2024-01-20T14:53:05.877Z,60.81
2024-01-20T14:55:34.266Z,61.22
2024-01-20T14:58:03.548Z,61.00
2024-01-20T15:00:32.125Z,60.75
2024-01-20T15:03:02.255Z,61.11
2024-01-20T15:05:30.797Z,60.90
2024-01-20T15:07:59.531Z,61.33
2024-01-20T15:10:28.034Z,61.05
2024-01-20T15:12:56.478Z,61.55
2024-01-20T15:15:24.982Z,61.08
2024-01-20T15:17:53.444Z,61.83
2024-01-20T15:20:23.305Z,62.17
2024-01-20T15:22:51.925Z,62.17
2024-01-20T15:25:20.435Z,62.99
2024-01-20T15:27:49.056Z,63.49
2024-01-20T15:30:17.806Z,62.65
2024-01-20T15:32:46.380Z,62.78
2024-01-20T15:35:15.147Z,63.18
2024-01-20T15:37:44.995Z,63.57
2024-01-20T15:40:14.539Z,63.76
2024-01-20T15:42:43.075Z,64.07
2024-01-20T15:45:12.041Z,64.06
2024-01-20T15:47:40.589Z,64.80
2024-01-20T15:50:09.898Z,64.97
2024-01-20T15:52:38.453Z,64.85
2024-01-20T15:55:10.786Z,65.57
2024-01-20T15:57:39.483Z,65.75
2024-01-20T16:00:12.129Z,65.99
2024-01-20T16:02:40.766Z,66.06
2024-01-20T16:05:10.206Z,66.73
2024-01-20T16:07:38.869Z,67.18
2024-01-20T16:10:09.991Z,66.92
2024-01-20T16:12:40.674Z,67.13
2024-01-20T16:15:12.203Z,67.36
2024-01-20T16:17:41.416Z,66.84
2024-01-20T16:20:11.292Z,66.98
2024-01-20T16:22:40.899Z,67.02
2024-01-20T16:25:10.979Z,67.01
2024-01-20T16:27:39.593Z,66.49
2024-01-20T16:30:10.124Z,66.18
2024-01-20T16:32:38.704Z,66.49
2024-01-20T16:35:08.082Z,67.05
2024-01-20T16:37:37.252Z,67.24
2024-01-20T16:40:07.086Z,67.43
2024-01-20T16:42:37.008Z,67.59
2024-01-20T16:45:06.526Z,67.87
2024-01-20T16:47:35.185Z,68.13
2024-01-20T16:50:04.041Z,68.68
2024-01-20T16:52:32.745Z,68.86
2024-01-20T16:55:14.084Z,69.18
2024-01-20T16:57:45.641Z,69.88
2024-01-20T17:00:15.628Z,69.37
2024-01-20T17:02:44.143Z,69.85
2024-01-20T17:05:12.668Z,70.21
2024-01-20T17:07:42.181Z,70.47
2024-01-20T17:10:12.409Z,70.65
2024-01-20T17:12:40.923Z,70.75
2024-01-20T17:15:12.481Z,71.13
2024-01-20T17:17:41.052Z,70.74
2024-01-20T17:20:11.017Z,71.88
2024-01-20T17:22:39.368Z,71.11
2024-01-20T17:25:09.809Z,71.58
2024-01-20T17:27:39.899Z,71.70
2024-01-20T17:30:11.864Z,71.71
2024-01-20T17:32:40.873Z,71.55
2024-01-20T17:35:10.345Z,72.23
2024-01-20T17:37:39.048Z,72.46
2024-01-20T17:40:10.170Z,72.04
2024-01-20T17:42:38.780Z,71.93
2024-01-20T17:45:11.282Z,71.84
2024-01-20T17:47:40.955Z,72.38
2024-01-20T17:50:09.924Z,71.67
2024-01-20T17:52:38.747Z,71.64
2024-01-20T17:55:08.544Z,71.48
2024-01-20T17:57:37.065Z,71.44
2024-01-20T18:00:07.915Z,71.85
2024-01-20T18:02:46.901Z,71.81
2024-01-20T18:05:15.794Z,71.26
2024-01-20T18:07:50.450Z,71.82
2024-01-20T18:10:20.413Z,71.56
2024-01-20T18:12:49.097Z,72.26
2024-01-20T18:15:17.944Z,72.17
2024-01-20T18:17:47.852Z,72.45
2024-01-20T18:20:16.327Z,72.92
2024-01-20T18:22:46.428Z,72.08
2024-01-20T18:25:14.860Z,72.77
2024-01-20T18:27:43.277Z,73.24
2024-01-20T18:30:12.306Z,72.88
2024-01-20T18:32:41.036Z,72.43
2024-01-20T18:35:12.977Z,72.99
2024-01-20T18:37:42.980Z,73.42
2024-01-20T18:40:14.106Z,73.11
2024-01-20T18:42:43.302Z,73.38
2024-01-20T18:45:12.035Z,73.26
2024-01-20T18:47:41.881Z,73.92
2024-01-20T18:50:12.552Z,74.13
2024-01-20T18:52:40.943Z,73.90
2024-01-20T18:55:10.039Z,74.11
2024-01-20T18:57:39.587Z,74.40
2024-01-20T19:00:09.414Z,74.52
2024-01-20T19:02:37.900Z,74.08
2024-01-20T19:05:07.215Z,74.80
2024-01-20T19:07:37.591Z,74.12
2024-01-20T19:10:10.972Z,73.87
2024-01-20T19:12:41.197Z,74.74
2024-01-20T19:15:10.380Z,73.98
2024-01-20T19:17:38.956Z,73.53
2024-01-20T19:20:10.498Z,73.77
2024-01-20T19:22:40.263Z,73.74
2024-01-20T19:25:11.549Z,74.34
2024-01-20T19:27:40.164Z,73.87
2024-01-20T19:30:10.508Z,73.89
2024-01-20T19:32:39.190Z,74.31
2024-01-20T19:35:08.099Z,74.01
2024-01-20T19:37:36.445Z,74.18
2024-01-20T19:40:08.980Z,74.48
2024-01-20T19:42:37.539Z,73.55
2024-01-20T19:45:06.947Z,73.43
2024-01-20T19:47:37.676Z,73.62
2024-01-20T19:50:08.381Z,73.78
2024-01-20T19:52:38.531Z,73.74
2024-01-20T19:55:09.691Z,73.92
2024-01-20T19:57:39.050Z,73.70
2024-01-20T20:00:10.801Z,73.51
2024-01-20T20:02:42.783Z,74.01
2024-01-20T20:05:11.327Z,73.84
2024-01-20T20:07:39.785Z,73.67
2024-01-20T20:10:10.781Z,74.37
2024-01-20T20:12:39.335Z,73.91
2024-01-20T20:15:10.151Z,74.41
2024-01-20T20:17:39.242Z,74.20
2024-01-20T20:20:09.237Z,74.92
2024-01-20T20:22:37.647Z,74.46
2024-01-20T20:25:06.907Z,75.29
2024-01-20T20:27:36.758Z,75.31
2024-01-20T20:30:06.220Z,75.69
2024-01-20T20:32:34.843Z,75.48
2024-01-20T20:35:03.452Z,74.74
2024-01-20T20:37:31.901Z,75.08
2024-01-20T20:40:00.352Z,74.65
2024-01-20T20:42:28.993Z,74.65
2024-01-20T20:44:58.811Z,74.93
2024-01-20T20:47:27.316Z,74.49
2024-01-20T20:49:55.897Z,74.44
2024-01-20T20:52:24.400Z,74.78
2024-01-20T20:54:53.463Z,74.45
2024-01-20T20:57:21.947Z,74.30
2024-01-20T20:59:50.450Z,74.09
2024-01-20T21:02:22.179Z,73.13
2024-01-20T21:04:50.731Z,73.14
2024-01-20T21:07:22.858Z,73.43
2024-01-20T21:09:53.912Z,73.26
2024-01-20T21:12:22.770Z,73.55
2024-01-20T21:14:51.187Z,73.48
2024-01-20T21:17:21.039Z,73.80
2024-01-20T21:19:50.106Z,73.32
2024-01-20T21:22:18.657Z,73.81
2024-01-20T21:24:47.411Z,73.98
2024-01-20T21:27:15.928Z,73.88
2024-01-20T21:29:45.329Z,73.87
2024-01-20T21:32:13.867Z,74.14
2024-01-20T21:34:44.014Z,74.90
2024-01-20T21:37:12.404Z,75.08
2024-01-20T21:39:40.916Z,74.37
2024-01-20T21:42:10.758Z,74.25
2024-01-20T21:44:39.369Z,73.99
2024-01-20T21:47:07.891Z,74.79
2024-01-20T21:49:37.227Z,74.19
2024-01-20T21:52:08.257Z,74.28
2024-01-20T21:54:36.675Z,73.68
2024-01-20T21:57:06.062Z,74.52
2024-01-20T21:59:34.559Z,73.83
2024-01-20T22:02:02.949Z,73.46
2024-01-20T22:04:31.318Z,73.28
2024-01-20T22:06:59.796Z,72.89
2024-01-20T22:09:29.729Z,72.98
2024-01-20T22:11:58.253Z,72.58
2024-01-20T22:14:26.683Z,72.50
2024-01-20T22:16:55.080Z,72.94
2024-01-20T22:19:23.633Z,72.77
2024-01-20T22:21:52.173Z,72.46
2024-01-20T22:24:21.505Z,72.14
2024-01-20T22:26:51.474Z,71.42
2024-01-20T22:29:28.428Z,71.45
2024-01-20T22:32:01.345Z,72.05
2024-01-20T22:34:32.811Z,71.55
2024-01-20T22:37:01.931Z,70.45
2024-01-20T22:39:30.727Z,70.88
2024-01-20T22:42:00.549Z,70.26
2024-01-20T22:44:29.125Z,70.34
2024-01-20T22:46:57.525Z,69.92
2024-01-20T22:49:26.160Z,69.15
2024-01-20T22:51:54.622Z,69.59
2024-01-20T22:54:26.002Z,68.74
2024-01-20T22:56:54.411Z,69.32
2024-01-20T22:59:24.297Z,68.20
2024-01-20T23:01:52.903Z,68.82
2024-01-20T23:04:21.418Z,68.48
2024-01-20T23:06:52.037Z,68.62
2024-01-20T23:09:21.939Z,68.86
2024-01-20T23:11:50.626Z,69.01
2024-01-20T23:14:19.036Z,68.71
2024-01-20T23:16:49.017Z,68.92
2024-01-20T23:19:17.660Z,69.18
2024-01-20T23:21:46.107Z,68.35
2024-01-20T23:24:14.533Z,68.22
2024-01-20T23:26:44.309Z,68.05
2024-01-20T23:29:13.375Z,67.26
2024-01-20T23:31:41.949Z,67.74
2024-01-20T23:34:12.679Z,66.96
2024-01-20T23:36:41.619Z,67.17
2024-01-20T23:39:13.308Z,67.38
2024-01-20T23:41:41.799Z,66.62
2024-01-20T23:44:11.206Z,67.25
2024-01-20T23:46:39.559Z,67.00
2024-01-20T23:49:08.011Z,66.95
2024-01-20T23:51:37.907Z,67.89
2024-01-20T23:54:06.448Z,67.57
2024-01-20T23:56:34.841Z,66.92
2024-01-20T23:59:03.563Z,67.02
